Terminal Aerodrome Forecast
Issued by NWS Amarillo, TX

Home | Current Version | Previous Version | Text Only | Print | Product List | Glossary On
Versions: 1 2 3 4 5 6 7 8 9 10 11 12 13 14
000
FTUS44 KAMA 271100
TAFGUY
TAF
KGUY 271120Z 2712/2812 16008KT P6SM SCT120
     FM271800 18014KT P6SM SCT070 SCT250
     FM280100 16010KT P6SM BKN100=

USA.gov is the U.S. government's official web portal to all federal, state and local government web resources and services.